Time;durP1;ratioP1;P1;durP2;ratioP2;P2;SDS_P1;SDS_P2;PMS_P1;PMS_P2;Temp;Humidity;BMP_temperature;BMP_pressure;BME280_temperature;BME280_humidity;BME280_pressure;Samples;Min_cycle;Max_cycle;Signal;HPM_P1;HPM_P2
2023/06/22 00:01:46;;;;;;;11.73;10.63;;;;;;;;;;5015203;28;20038;-65
2023/06/22 00:04:11;;;;;;;12.52;11.30;;;;;;;;;;5014874;28;20049;-65
2023/06/22 00:06:37;;;;;;;16.90;14.38;;;;;;;;;;5014959;28;20048;-65
2023/06/22 00:09:03;;;;;;;14.82;12.88;;;;;;;;;;5015056;28;20091;-65
2023/06/22 00:11:28;;;;;;;13.32;12.05;;;;;;;;;;5030200;28;20025;-65
2023/06/22 00:13:53;;;;;;;13.27;11.82;;;;;;;;;;5030084;28;20389;-65
2023/06/22 00:16:19;;;;;;;13.95;12.63;;;;;;;;;;5014413;28;20117;-66
2023/06/22 00:18:47;;;;;;;14.50;13.00;;;;;;;;;;5014729;28;20038;-66
2023/06/22 00:21:12;;;;;;;12.57;11.45;;;;;;;;;;5014587;28;20041;-66
2023/06/22 00:23:38;;;;;;;12.00;10.70;;;;;;;;;;5014580;28;20052;-64
2023/06/22 00:26:03;;;;;;;11.68;10.65;;;;;;;;;;5014644;28;20037;-63
2023/06/22 00:28:28;;;;;;;12.60;11.40;;;;;;;;;;5029931;28;20056;-65
2023/06/22 00:30:54;;;;;;;14.38;12.93;;;;;;;;;;5014581;28;20026;-64
2023/06/22 00:33:19;;;;;;;12.98;11.55;;;;;;;;;;5029150;28;20100;-64
2023/06/22 00:35:45;;;;;;;13.10;11.73;;;;;;;;;;5014515;28;20378;-64
2023/06/22 00:38:10;;;;;;;13.07;11.80;;;;;;;;;;5029192;28;20469;-65
2023/06/22 00:40:36;;;;;;;12.95;11.63;;;;;;;;;;5046633;28;20042;-65
2023/06/22 00:43:02;;;;;;;11.80;10.70;;;;;;;;;;5029853;28;20033;-65
2023/06/22 00:45:28;;;;;;;11.30;10.23;;;;;;;;;;5014229;28;20034;-64
2023/06/22 00:47:56;;;;;;;12.05;10.77;;;;;;;;;;5029256;28;20456;-65
2023/06/22 00:50:22;;;;;;;11.30;10.25;;;;;;;;;;5013928;28;20042;-65
2023/06/22 00:52:58;;;;;;;12.68;11.27;;;;;;;;;;5013716;28;20042;-65
2023/06/22 00:55:25;;;;;;;12.48;11.35;;;;;;;;;;5014144;28;20081;-66
2023/06/22 00:57:55;;;;;;;12.90;11.63;;;;;;;;;;5034962;28;20483;-66
2023/06/22 01:00:24;;;;;;;12.75;11.57;;;;;;;;;;5018916;28;20038;-65
2023/06/22 01:02:51;;;;;;;12.70;11.00;;;;;;;;;;5002565;28;20046;-65
2023/06/22 01:05:18;;;;;;;13.07;11.77;;;;;;;;;;5035829;28;20035;-65
2023/06/22 01:07:46;;;;;;;13.30;12.00;;;;;;;;;;5036008;28;20496;-65
2023/06/22 01:10:11;;;;;;;13.48;12.07;;;;;;;;;;5035851;28;20404;-65
2023/06/22 01:12:44;;;;;;;12.37;11.03;;;;;;;;;;5035404;28;20030;-65
2023/06/22 01:15:11;;;;;;;12.07;10.95;;;;;;;;;;5020361;28;20731;-65
2023/06/22 01:17:40;;;;;;;11.60;10.52;;;;;;;;;;5036134;28;20434;-65
2023/06/22 01:20:06;;;;;;;11.35;10.32;;;;;;;;;;5002730;28;20092;-65
2023/06/22 01:22:40;;;;;;;14.10;11.73;;;;;;;;;;5036162;28;20034;-65
2023/06/22 01:25:17;;;;;;;15.77;12.23;;;;;;;;;;5020563;28;20492;-67
2023/06/22 01:28:03;;;;;;;13.00;11.77;;;;;;;;;;5035306;28;20065;-67
2023/06/22 01:30:29;;;;;;;13.23;11.70;;;;;;;;;;5020773;28;20038;-67
2023/06/22 01:32:56;;;;;;;12.93;11.60;;;;;;;;;;5035131;28;20041;-67
2023/06/22 01:35:24;;;;;;;12.65;11.48;;;;;;;;;;5020541;28;20092;-67
2023/06/22 01:37:50;;;;;;;13.05;11.60;;;;;;;;;;5035219;28;20477;-67
2023/06/22 01:40:18;;;;;;;11.48;10.25;;;;;;;;;;5035726;28;20389;-67
2023/06/22 01:42:44;;;;;;;12.18;10.95;;;;;;;;;;5020326;28;20045;-67
2023/06/22 01:45:11;;;;;;;12.32;9.27;;;;;;;;;;5019131;28;20049;-67
2023/06/22 01:47:37;;;;;;;10.60;9.63;;;;;;;;;;5020189;28;20387;-67
2023/06/22 01:50:02;;;;;;;10.93;9.93;;;;;;;;;;5020452;28;20050;-67
2023/06/22 01:52:28;;;;;;;11.55;9.85;;;;;;;;;;5020297;28;20050;-67
2023/06/22 01:54:57;;;;;;;13.43;10.43;;;;;;;;;;5020047;28;20026;-67
2023/06/22 01:57:23;;;;;;;12.75;10.40;;;;;;;;;;5035469;28;20037;-67
2023/06/22 02:00:03;;;;;;;11.60;8.95;;;;;;;;;;5049581;28;20535;-66
2023/06/22 02:02:48;;;;;;;10.75;9.68;;;;;;;;;;5055774;28;20472;-67
2023/06/22 02:05:16;;;;;;;11.43;10.07;;;;;;;;;;5039811;28;20427;-67
2023/06/22 02:07:49;;;;;;;12.93;10.73;;;;;;;;;;5048033;28;20037;-67
2023/06/22 02:10:15;;;;;;;13.38;11.25;;;;;;;;;;5036330;28;20400;-67
2023/06/22 02:12:42;;;;;;;15.57;11.77;;;;;;;;;;5036246;28;20531;-67
2023/06/22 02:15:07;;;;;;;13.52;12.15;;;;;;;;;;5051950;28;20469;-67
2023/06/22 02:17:33;;;;;;;12.30;10.98;;;;;;;;;;5051740;28;20033;-67
2023/06/22 02:20:00;;;;;;;11.05;9.88;;;;;;;;;;5035316;28;20075;-67
2023/06/22 02:22:26;;;;;;;13.00;10.25;;;;;;;;;;5034879;28;20038;-67
2023/06/22 02:24:51;;;;;;;11.07;10.02;;;;;;;;;;5052084;28;20054;-67
2023/06/22 02:27:18;;;;;;;10.85;9.77;;;;;;;;;;5051868;28;20049;-67
2023/06/22 02:29:44;;;;;;;11.65;10.52;;;;;;;;;;5035210;28;20041;-68
2023/06/22 02:32:10;;;;;;;13.05;10.40;;;;;;;;;;5035889;28;20502;-67
2023/06/22 02:34:36;;;;;;;11.18;10.02;;;;;;;;;;5036500;28;20504;-67
2023/06/22 02:37:02;;;;;;;11.68;10.15;;;;;;;;;;5051889;28;20132;-67
2023/06/22 02:39:27;;;;;;;12.13;9.98;;;;;;;;;;5051171;28;20167;-66
2023/06/22 02:41:53;;;;;;;11.10;10.00;;;;;;;;;;5036248;28;20021;-67
2023/06/22 02:44:21;;;;;;;10.40;9.35;;;;;;;;;;5035747;28;20476;-67
2023/06/22 02:46:47;;;;;;;15.85;10.13;;;;;;;;;;5035704;28;20044;-67
2023/06/22 02:49:14;;;;;;;12.57;11.18;;;;;;;;;;5049814;28;20034;-66
2023/06/22 02:51:41;;;;;;;15.27;11.93;;;;;;;;;;5050981;28;20373;-67
2023/06/22 02:56:40;;;;;;;15.48;11.65;;;;;;;;;;5038111;23;20057;-66
2023/06/22 02:59:06;;;;;;;13.60;11.38;;;;;;;;;;5051586;28;20083;-66
2023/06/22 03:01:39;;;;;;;13.98;10.70;;;;;;;;;;5050909;28;20032;-63
2023/06/22 03:04:09;;;;;;;12.13;10.32;;;;;;;;;;5050669;28;20485;-63
2023/06/22 03:06:41;;;;;;;14.85;10.75;;;;;;;;;;5050639;28;20163;-63
2023/06/22 03:09:07;;;;;;;11.45;10.23;;;;;;;;;;5050672;28;20052;-63
2023/06/22 03:11:34;;;;;;;15.30;10.07;;;;;;;;;;5050770;28;20037;-65
2023/06/22 03:14:00;;;;;;;11.02;9.77;;;;;;;;;;5050872;28;20067;-66
2023/06/22 03:16:25;;;;;;;12.73;9.68;;;;;;;;;;5050529;28;20136;-65
2023/06/22 03:18:53;;;;;;;12.02;9.38;;;;;;;;;;5050325;28;20041;-65
2023/06/22 03:21:19;;;;;;;11.32;9.73;;;;;;;;;;5050254;28;20055;-64
2023/06/22 03:23:44;;;;;;;10.82;9.65;;;;;;;;;;5035121;28;20480;-63
2023/06/22 03:26:10;;;;;;;12.85;9.73;;;;;;;;;;5035511;28;20052;-63
2023/06/22 03:28:36;;;;;;;11.50;9.43;;;;;;;;;;5050264;28;20049;-63
2023/06/22 03:31:01;;;;;;;10.35;9.32;;;;;;;;;;5034874;28;20064;-65
2023/06/22 03:33:29;;;;;;;10.90;9.65;;;;;;;;;;5034824;28;20042;-65
2023/06/22 03:35:57;;;;;;;11.60;10.25;;;;;;;;;;5050475;28;20037;-64
2023/06/22 03:38:22;;;;;;;12.20;10.77;;;;;;;;;;5034979;28;20034;-64
2023/06/22 03:40:52;;;;;;;12.43;10.25;;;;;;;;;;5050584;28;20025;-64
2023/06/22 03:43:17;;;;;;;11.68;10.15;;;;;;;;;;5035182;28;20385;-64
2023/06/22 03:45:45;;;;;;;15.75;10.75;;;;;;;;;;5050203;28;20041;-65
2023/06/22 03:48:11;;;;;;;12.85;10.40;;;;;;;;;;5050166;28;20033;-64
2023/06/22 03:50:37;;;;;;;12.43;9.55;;;;;;;;;;5050296;28;20050;-63
2023/06/22 03:53:02;;;;;;;11.73;10.40;;;;;;;;;;5035147;28;20048;-64
2023/06/22 03:55:28;;;;;;;10.77;9.25;;;;;;;;;;5034987;28;20037;-65
2023/06/22 03:57:56;;;;;;;10.80;9.60;;;;;;;;;;5032987;28;20053;-66
2023/06/22 04:00:22;;;;;;;10.18;9.13;;;;;;;;;;5034627;28;20048;-65
2023/06/22 04:02:47;;;;;;;13.75;10.32;;;;;;;;;;5034382;28;20037;-65
2023/06/22 04:05:13;;;;;;;14.30;9.85;;;;;;;;;;5034436;28;20044;-63
2023/06/22 04:07:39;;;;;;;11.27;9.88;;;;;;;;;;5034133;28;20045;-63
2023/06/22 04:10:05;;;;;;;10.77;9.02;;;;;;;;;;5049659;28;20068;-63
2023/06/22 04:12:30;;;;;;;15.38;8.73;;;;;;;;;;5034556;28;20033;-63
2023/06/22 04:14:56;;;;;;;11.90;8.23;;;;;;;;;;5033442;28;20038;-63
2023/06/22 04:17:21;;;;;;;10.13;7.35;;;;;;;;;;5034336;28;20059;-67
2023/06/22 04:19:46;;;;;;;12.00;7.53;;;;;;;;;;5048969;28;20421;-65
2023/06/22 04:22:12;;;;;;;10.57;7.07;;;;;;;;;;5049022;23;20053;-68
2023/06/22 04:24:37;;;;;;;12.15;7.75;;;;;;;;;;5054062;28;20029;-63
2023/06/22 04:27:03;;;;;;;14.18;7.90;;;;;;;;;;5053739;28;20481;-63
2023/06/22 04:29:32;;;;;;;14.63;7.80;;;;;;;;;;5035847;28;20132;-62
2023/06/22 04:32:02;;;;;;;11.07;7.45;;;;;;;;;;5051902;28;20065;-61
2023/06/22 04:34:28;;;;;;;10.18;7.25;;;;;;;;;;5053682;28;20126;-61
2023/06/22 04:36:54;;;;;;;9.38;6.65;;;;;;;;;;5053901;28;20060;-61
2023/06/22 04:39:19;;;;;;;11.50;7.10;;;;;;;;;;5054119;28;20045;-61
2023/06/22 04:41:44;;;;;;;10.60;7.53;;;;;;;;;;5051328;28;20025;-62
2023/06/22 04:44:10;;;;;;;10.77;7.03;;;;;;;;;;5053567;28;20434;-62
2023/06/22 04:46:38;;;;;;;8.82;6.18;;;;;;;;;;5053798;28;20064;-69
2023/06/22 04:49:06;;;;;;;11.63;6.82;;;;;;;;;;5053219;28;20079;-62
2023/06/22 04:51:31;;;;;;;11.25;6.97;;;;;;;;;;5052913;28;20071;-65
2023/06/22 04:54:00;;;;;;;10.82;7.47;;;;;;;;;;5035463;28;20037;-65
2023/06/22 04:56:27;;;;;;;8.85;6.93;;;;;;;;;;5053401;28;20049;-65
2023/06/22 04:58:57;;;;;;;11.70;7.50;;;;;;;;;;5016152;28;20485;-65
2023/06/22 05:01:22;;;;;;;11.50;8.10;;;;;;;;;;5051972;28;20037;-65
2023/06/22 05:03:48;;;;;;;15.88;10.77;;;;;;;;;;5052860;28;20032;-65
2023/06/22 05:06:14;;;;;;;16.58;10.98;;;;;;;;;;5053155;28;20041;-65
2023/06/22 05:08:39;;;;;;;17.67;12.88;;;;;;;;;;5052882;28;20033;-64
2023/06/22 05:11:04;;;;;;;24.00;14.23;;;;;;;;;;5053545;28;20136;-63
2023/06/22 05:13:30;;;;;;;15.32;11.80;;;;;;;;;;5052824;28;20103;-65
2023/06/22 05:16:00;;;;;;;17.00;12.20;;;;;;;;;;5035215;28;20445;-65
2023/06/22 05:18:27;;;;;;;14.93;12.05;;;;;;;;;;5052597;28;20111;-70
2023/06/22 05:20:53;;;;;;;19.90;14.13;;;;;;;;;;5051937;28;20133;-70
2023/06/22 05:23:19;;;;;;;17.13;13.23;;;;;;;;;;5034010;28;20374;-71
2023/06/22 05:25:44;;;;;;;17.75;12.90;;;;;;;;;;5034504;28;20120;-71
2023/06/22 05:28:11;;;;;;;12.60;11.30;;;;;;;;;;5050966;28;20457;-71
2023/06/22 05:30:36;;;;;;;15.45;12.07;;;;;;;;;;5050260;28;20171;-71
2023/06/22 05:33:02;;;;;;;17.48;11.98;;;;;;;;;;5045151;28;20136;-71
2023/06/22 05:35:27;;;;;;;16.55;9.90;;;;;;;;;;5050288;28;20021;-71
2023/06/22 05:37:52;;;;;;;17.95;10.05;;;;;;;;;;5033515;28;20033;-72
2023/06/22 05:40:18;;;;;;;14.05;11.85;;;;;;;;;;5052108;28;20078;-71
2023/06/22 05:42:43;;;;;;;16.17;13.13;;;;;;;;;;5052691;28;20078;-71
2023/06/22 05:45:09;;;;;;;14.75;12.43;;;;;;;;;;5056149;28;20037;-71
2023/06/22 05:47:34;;;;;;;16.85;14.27;;;;;;;;;;5056456;28;20100;-72
2023/06/22 05:50:00;;;;;;;17.95;14.90;;;;;;;;;;5037865;28;20518;-71
2023/06/22 05:52:25;;;;;;;21.80;15.18;;;;;;;;;;5036706;28;20033;-71
2023/06/22 05:54:50;;;;;;;18.63;14.15;;;;;;;;;;5055757;28;20033;-71
2023/06/22 05:57:16;;;;;;;16.55;14.82;;;;;;;;;;5055751;28;20041;-71
2023/06/22 05:59:41;;;;;;;19.63;17.73;;;;;;;;;;5054551;28;20037;-71
2023/06/22 06:02:06;;;;;;;18.55;16.60;;;;;;;;;;5054510;28;20131;-71
2023/06/22 06:04:32;;;;;;;14.27;12.82;;;;;;;;;;5054945;28;20111;-71
2023/06/22 06:06:57;;;;;;;18.20;16.30;;;;;;;;;;5037348;28;20021;-71
2023/06/22 06:09:23;;;;;;;16.15;14.45;;;;;;;;;;5038106;28;20033;-71
2023/06/22 06:11:48;;;;;;;15.52;13.95;;;;;;;;;;5056281;28;20029;-71
2023/06/22 06:14:13;;;;;;;16.70;15.00;;;;;;;;;;5038353;28;20068;-71
2023/06/22 06:16:38;;;;;;;14.55;13.15;;;;;;;;;;5038342;28;20099;-71
2023/06/22 06:19:04;;;;;;;12.70;11.43;;;;;;;;;;5056718;28;20044;-71
2023/06/22 06:21:29;;;;;;;14.18;12.65;;;;;;;;;;5056133;28;20108;-71
2023/06/22 06:23:54;;;;;;;13.48;12.05;;;;;;;;;;5034681;28;20045;-71
2023/06/22 06:26:27;;;;;;;13.65;12.38;;;;;;;;;;5036109;28;20056;-71
2023/06/22 06:28:53;;;;;;;13.85;12.27;;;;;;;;;;5036373;28;20124;-71
2023/06/22 06:31:18;;;;;;;11.20;10.05;;;;;;;;;;5036011;28;20069;-71
2023/06/22 06:33:44;;;;;;;11.85;10.68;;;;;;;;;;5035943;28;20041;-71
2023/06/22 06:36:10;;;;;;;9.30;7.80;;;;;;;;;;5036236;28;20080;-71
2023/06/22 06:38:35;;;;;;;9.77;8.93;;;;;;;;;;5035905;28;20037;-71
2023/06/22 06:41:00;;;;;;;10.57;9.55;;;;;;;;;;5036130;28;20069;-71
2023/06/22 06:43:26;;;;;;;10.68;9.45;;;;;;;;;;5035798;28;20393;-71
2023/06/22 06:45:51;;;;;;;10.75;9.65;;;;;;;;;;5034534;28;20060;-71
2023/06/22 06:48:17;;;;;;;10.30;9.30;;;;;;;;;;5050202;23;20054;-71
2023/06/22 06:50:43;;;;;;;10.48;9.52;;;;;;;;;;5055578;28;20033;-64
2023/06/22 06:53:09;;;;;;;9.38;8.57;;;;;;;;;;5055460;28;20041;-64
2023/06/22 06:55:34;;;;;;;9.10;8.35;;;;;;;;;;5054962;28;20052;-64
2023/06/22 06:58:00;;;;;;;8.40;7.65;;;;;;;;;;5037897;28;20032;-64
2023/06/22 07:00:26;;;;;;;9.48;8.65;;;;;;;;;;5055386;28;20112;-64
2023/06/22 07:02:52;;;;;;;8.50;7.70;;;;;;;;;;5055618;28;20122;-64
2023/06/22 07:05:17;;;;;;;8.05;7.35;;;;;;;;;;5037405;28;20048;-65
2023/06/22 07:07:42;;;;;;;8.57;7.78;;;;;;;;;;5055280;28;20392;-64
2023/06/22 07:10:08;;;;;;;8.00;7.10;;;;;;;;;;5037335;28;20049;-64
2023/06/22 07:12:34;;;;;;;8.20;7.47;;;;;;;;;;5055337;28;20083;-64
2023/06/22 07:15:07;;;;;;;7.60;7.00;;;;;;;;;;5037290;28;20132;-64
2023/06/22 07:17:33;;;;;;;6.57;6.07;;;;;;;;;;5037143;28;20512;-64
2023/06/22 07:19:58;;;;;;;7.05;6.55;;;;;;;;;;5055322;28;20037;-64
2023/06/22 07:22:24;;;;;;;7.40;6.70;;;;;;;;;;5037200;28;20043;-64
2023/06/22 07:24:49;;;;;;;8.13;7.32;;;;;;;;;;5020291;28;20063;-64
2023/06/22 07:27:16;;;;;;;8.18;7.47;;;;;;;;;;5055118;28;20162;-64
2023/06/22 07:29:43;;;;;;;8.65;7.90;;;;;;;;;;5036929;28;20433;-64
2023/06/22 07:32:08;;;;;;;7.50;6.90;;;;;;;;;;5036879;28;20396;-64
2023/06/22 07:34:33;;;;;;;7.13;6.63;;;;;;;;;;5036952;28;20052;-64
2023/06/22 07:36:59;;;;;;;7.60;7.00;;;;;;;;;;5036648;28;20127;-64
2023/06/22 07:39:25;;;;;;;7.22;6.63;;;;;;;;;;5054650;28;20032;-64
2023/06/22 07:41:51;;;;;;;7.63;6.93;;;;;;;;;;5054633;28;20021;-64
2023/06/22 07:44:16;;;;;;;7.70;6.70;;;;;;;;;;5054553;28;20393;-64
2023/06/22 07:46:41;;;;;;;9.18;6.90;;;;;;;;;;5054489;28;20039;-64
2023/06/22 07:49:10;;;;;;;8.05;6.53;;;;;;;;;;5036462;28;20041;-64
2023/06/22 07:51:36;;;;;;;7.38;6.78;;;;;;;;;;5054568;28;20036;-64
2023/06/22 07:54:01;;;;;;;17.27;7.63;;;;;;;;;;5054294;28;20037;-64
2023/06/22 07:56:26;;;;;;;7.13;6.43;;;;;;;;;;5036595;28;20041;-64
2023/06/22 07:58:53;;;;;;;7.35;6.70;;;;;;;;;;5036462;28;20040;-64
2023/06/22 08:01:20;;;;;;;7.13;6.53;;;;;;;;;;5054450;28;20052;-64
2023/06/22 08:03:47;;;;;;;6.80;6.20;;;;;;;;;;5054185;28;20063;-65
2023/06/22 08:06:12;;;;;;;7.38;6.75;;;;;;;;;;5053507;28;20076;-64
2023/06/22 08:08:37;;;;;;;6.60;6.10;;;;;;;;;;5054375;28;20068;-64
2023/06/22 08:11:03;;;;;;;6.35;5.85;;;;;;;;;;5054062;28;20053;-65
2023/06/22 08:13:28;;;;;;;7.28;6.68;;;;;;;;;;5036779;28;20036;-65
2023/06/22 08:15:58;;;;;;;7.22;6.47;;;;;;;;;;5036676;22;20041;31
2023/06/22 08:18:24;;;;;;;7.40;6.70;;;;;;;;;;5052538;28;20048;-65
2023/06/22 08:20:49;;;;;;;7.03;6.20;;;;;;;;;;5068517;22;20053;-64
2023/06/22 08:23:15;;;;;;;6.30;5.80;;;;;;;;;;5054105;28;20438;-64
2023/06/22 08:25:40;;;;;;;5.32;4.82;;;;;;;;;;5054113;28;20435;-64
2023/06/22 08:28:05;;;;;;;6.65;6.13;;;;;;;;;;5053809;28;20041;-64
2023/06/22 08:30:31;;;;;;;6.32;5.90;;;;;;;;;;5035802;28;20024;-64
2023/06/22 08:32:56;;;;;;;6.68;6.13;;;;;;;;;;5035874;28;20095;-64
2023/06/22 08:35:22;;;;;;;7.28;6.00;;;;;;;;;;5053676;28;20037;-64
2023/06/22 08:37:51;;;;;;;6.47;5.97;;;;;;;;;;5054221;28;20032;-64
2023/06/22 08:40:17;;;;;;;6.63;6.00;;;;;;;;;;5035879;28;20044;-64
2023/06/22 08:42:42;;;;;;;9.77;6.70;;;;;;;;;;5019227;28;20619;-65
2023/06/22 08:45:08;;;;;;;5.85;5.45;;;;;;;;;;5053859;28;20082;-64
2023/06/22 08:47:33;;;;;;;6.53;5.95;;;;;;;;;;5053806;28;20045;-64
2023/06/22 08:49:59;;;;;;;6.10;5.60;;;;;;;;;;5053529;28;20550;-65
2023/06/22 08:52:24;;;;;;;6.32;5.85;;;;;;;;;;5035557;28;20052;-64
2023/06/22 08:54:51;;;;;;;6.78;6.22;;;;;;;;;;5053711;28;20040;-64
2023/06/22 08:57:16;;;;;;;7.05;6.55;;;;;;;;;;5053389;28;20037;-64
2023/06/22 08:59:42;;;;;;;6.15;5.75;;;;;;;;;;5035902;28;20032;-64
2023/06/22 09:02:07;;;;;;;6.18;5.57;;;;;;;;;;5053342;28;20033;-64
2023/06/22 09:04:35;;;;;;;6.90;5.88;;;;;;;;;;5053326;28;20040;-64
2023/06/22 09:07:01;;;;;;;6.10;5.60;;;;;;;;;;5053599;28;20044;-64
2023/06/22 09:09:26;;;;;;;6.45;5.85;;;;;;;;;;5052060;28;20569;-64
2023/06/22 09:11:51;;;;;;;5.88;5.38;;;;;;;;;;5053290;28;20400;-71
2023/06/22 09:14:16;;;;;;;6.22;5.63;;;;;;;;;;5035373;28;20043;-64
2023/06/22 09:16:42;;;;;;;5.88;5.47;;;;;;;;;;5053227;28;20107;-64
2023/06/22 09:19:07;;;;;;;6.72;6.13;;;;;;;;;;5039052;28;20553;-65
2023/06/22 09:21:32;;;;;;;6.43;5.88;;;;;;;;;;5057176;28;20037;-65
2023/06/22 09:23:58;;;;;;;6.88;6.30;;;;;;;;;;5039289;28;20037;-64
2023/06/22 09:26:23;;;;;;;6.30;5.80;;;;;;;;;;5057135;28;20089;-65
2023/06/22 09:28:49;;;;;;;6.07;5.68;;;;;;;;;;5057404;28;20045;-64
2023/06/22 09:31:16;;;;;;;6.35;5.85;;;;;;;;;;5057610;28;20040;-65
2023/06/22 09:33:42;;;;;;;6.45;5.95;;;;;;;;;;5056954;28;20049;-65
2023/06/22 09:36:07;;;;;;;7.18;6.43;;;;;;;;;;5057274;28;20028;-65
2023/06/22 09:38:38;;;;;;;7.18;6.47;;;;;;;;;;5039118;28;20061;-65
2023/06/22 09:41:04;;;;;;;6.63;5.97;;;;;;;;;;5056778;28;20029;-65
2023/06/22 09:43:31;;;;;;;5.97;5.57;;;;;;;;;;5057045;28;20061;-64
2023/06/22 09:45:57;;;;;;;6.07;5.57;;;;;;;;;;5056824;28;20079;-65
2023/06/22 09:48:22;;;;;;;6.35;5.85;;;;;;;;;;5055378;28;20408;-65
2023/06/22 09:50:47;;;;;;;6.30;5.88;;;;;;;;;;5056973;28;20040;-65
2023/06/22 09:53:12;;;;;;;6.60;6.10;;;;;;;;;;5038703;28;20060;-65
2023/06/22 09:55:38;;;;;;;5.88;5.38;;;;;;;;;;5055142;28;20033;-64
2023/06/22 09:58:03;;;;;;;6.97;6.38;;;;;;;;;;5039047;28;20040;-65
2023/06/22 10:00:29;;;;;;;6.18;5.57;;;;;;;;;;5056565;28;20120;-65
2023/06/22 10:02:58;;;;;;;6.38;5.82;;;;;;;;;;5056531;28;20469;-65
2023/06/22 10:05:23;;;;;;;6.32;5.82;;;;;;;;;;5056694;28;20040;-65
2023/06/22 10:07:48;;;;;;;6.88;6.28;;;;;;;;;;5038536;28;20472;-65
2023/06/22 10:10:14;;;;;;;6.82;6.03;;;;;;;;;;5056356;28;20503;-65
2023/06/22 10:12:45;;;;;;;5.97;5.57;;;;;;;;;;5038308;28;20049;-65
2023/06/22 10:15:10;;;;;;;6.63;6.13;;;;;;;;;;5038608;28;20496;-65
2023/06/22 10:17:35;;;;;;;6.13;5.65;;;;;;;;;;5038444;28;20037;-64
2023/06/22 10:20:10;;;;;;;6.97;6.20;;;;;;;;;;5056026;28;20049;-65
2023/06/22 10:22:36;;;;;;;6.60;6.07;;;;;;;;;;5056391;28;20044;-65
2023/06/22 10:25:01;;;;;;;7.68;7.07;;;;;;;;;;5056076;28;20037;-64
2023/06/22 10:27:26;;;;;;;7.68;6.75;;;;;;;;;;5056621;28;20037;-64
2023/06/22 10:29:52;;;;;;;6.45;5.95;;;;;;;;;;5037214;28;20041;-65
2023/06/22 10:32:17;;;;;;;6.93;6.43;;;;;;;;;;5021487;28;20083;-65
2023/06/22 10:34:42;;;;;;;9.43;6.72;;;;;;;;;;5038030;28;20083;-65
2023/06/22 10:37:08;;;;;;;8.63;7.00;;;;;;;;;;5037965;28;20079;-65
2023/06/22 10:39:33;;;;;;;6.95;6.25;;;;;;;;;;5055826;28;20064;-65
2023/06/22 10:41:58;;;;;;;6.88;6.28;;;;;;;;;;5056045;28;20095;-65
2023/06/22 10:44:23;;;;;;;7.05;6.45;;;;;;;;;;5055985;28;20109;-65
2023/06/22 10:46:49;;;;;;;6.88;6.38;;;;;;;;;;5055665;28;20048;-65
2023/06/22 10:49:14;;;;;;;7.25;6.65;;;;;;;;;;5037852;28;20052;-65
2023/06/22 10:51:39;;;;;;;7.13;6.57;;;;;;;;;;5055821;28;20045;-64
2023/06/22 10:54:05;;;;;;;6.47;6.00;;;;;;;;;;5055751;28;20040;-64
2023/06/22 10:56:30;;;;;;;6.85;6.25;;;;;;;;;;5037759;28;20156;-64
2023/06/22 10:58:55;;;;;;;7.35;6.65;;;;;;;;;;5056000;28;20021;-65
2023/06/22 11:01:23;;;;;;;7.28;6.78;;;;;;;;;;5055402;28;20404;-65
2023/06/22 11:03:48;;;;;;;7.45;6.80;;;;;;;;;;5055373;28;20485;-65
2023/06/22 11:06:14;;;;;;;7.00;6.25;;;;;;;;;;5055280;28;20041;-64
2023/06/22 11:08:40;;;;;;;6.85;6.35;;;;;;;;;;5055286;28;20033;-65
2023/06/22 11:11:05;;;;;;;5.85;5.45;;;;;;;;;;5037387;28;20068;-65
2023/06/22 11:13:30;;;;;;;6.35;5.40;;;;;;;;;;5055087;28;20488;-65
2023/06/22 11:15:55;;;;;;;6.65;6.15;;;;;;;;;;5055119;28;20029;-65
2023/06/22 11:18:23;;;;;;;10.25;7.00;;;;;;;;;;5037332;28;20061;-65
2023/06/22 11:20:49;;;;;;;7.47;6.63;;;;;;;;;;5036979;28;20052;-65
2023/06/22 11:23:14;;;;;;;7.93;7.10;;;;;;;;;;5037098;28;20041;-64
2023/06/22 11:25:41;;;;;;;7.75;7.00;;;;;;;;;;5037054;28;20041;-65
2023/06/22 11:28:08;;;;;;;7.45;6.70;;;;;;;;;;5036988;28;20029;-65
2023/06/22 11:30:34;;;;;;;7.32;6.63;;;;;;;;;;5055098;28;20084;-65
2023/06/22 11:32:59;;;;;;;8.40;7.18;;;;;;;;;;5055008;28;20068;-65
2023/06/22 11:35:25;;;;;;;7.47;6.82;;;;;;;;;;5054752;28;20029;-65
2023/06/22 11:37:50;;;;;;;7.35;6.70;;;;;;;;;;5054664;28;20469;-65
2023/06/22 11:40:17;;;;;;;7.28;6.57;;;;;;;;;;5054609;28;20064;-71
2023/06/22 11:42:43;;;;;;;7.22;6.60;;;;;;;;;;5054571;28;20047;-71
2023/06/22 11:45:09;;;;;;;8.00;7.30;;;;;;;;;;5054855;28;20021;-71
2023/06/22 11:47:35;;;;;;;14.02;11.43;;;;;;;;;;5054741;28;20127;-71
2023/06/22 11:50:00;;;;;;;9.85;8.90;;;;;;;;;;5036711;28;20271;-71
2023/06/22 11:52:27;;;;;;;7.45;6.80;;;;;;;;;;5054321;28;20041;-71
2023/06/22 11:54:53;;;;;;;7.70;6.82;;;;;;;;;;5036856;28;20044;-71
2023/06/22 11:57:18;;;;;;;7.85;6.55;;;;;;;;;;5036537;28;20439;-71
2023/06/22 11:59:43;;;;;;;7.45;6.85;;;;;;;;;;5054289;28;20495;-71
2023/06/22 12:02:09;;;;;;;7.85;7.10;;;;;;;;;;5036768;28;20041;-71
2023/06/22 12:04:35;;;;;;;7.68;7.00;;;;;;;;;;5054158;28;20041;-71
2023/06/22 12:07:00;;;;;;;6.95;6.30;;;;;;;;;;5054488;28;20052;-71
2023/06/22 12:09:25;;;;;;;8.05;7.00;;;;;;;;;;5054400;28;20499;-72
2023/06/22 12:11:50;;;;;;;9.82;7.95;;;;;;;;;;5036799;28;20391;-71
2023/06/22 12:14:16;;;;;;;7.05;6.47;;;;;;;;;;5019525;28;20040;-72
2023/06/22 12:16:43;;;;;;;6.13;5.63;;;;;;;;;;5054021;28;20033;-71
2023/06/22 12:19:09;;;;;;;7.03;6.43;;;;;;;;;;5036143;28;20602;-72
2023/06/22 12:21:34;;;;;;;6.85;6.25;;;;;;;;;;5053763;28;20057;-71
2023/06/22 12:23:59;;;;;;;6.63;6.05;;;;;;;;;;5054193;28;20029;-71
2023/06/22 12:26:25;;;;;;;6.55;6.05;;;;;;;;;;5053842;28;20378;-71
2023/06/22 12:28:50;;;;;;;6.72;6.13;;;;;;;;;;5053848;28;20052;-71
2023/06/22 12:31:15;;;;;;;6.30;5.80;;;;;;;;;;5053752;28;20037;-71
2023/06/22 12:33:41;;;;;;;5.82;5.32;;;;;;;;;;5053700;28;20033;-71
2023/06/22 12:36:06;;;;;;;6.13;5.72;;;;;;;;;;5053700;28;20392;-71
2023/06/22 12:38:32;;;;;;;6.50;5.93;;;;;;;;;;5053893;28;20029;-71
2023/06/22 12:40:58;;;;;;;5.75;5.15;;;;;;;;;;5053930;28;20503;-71
2023/06/22 12:43:23;;;;;;;5.25;4.88;;;;;;;;;;5053594;28;20032;-71
2023/06/22 12:45:48;;;;;;;5.93;5.43;;;;;;;;;;5053598;28;20481;-71
2023/06/22 12:48:14;;;;;;;5.93;5.43;;;;;;;;;;5035687;28;20070;-71
2023/06/22 12:50:39;;;;;;;7.93;5.90;;;;;;;;;;5053515;28;20507;-71
2023/06/22 12:53:06;;;;;;;6.20;5.65;;;;;;;;;;5052543;28;20392;-72
2023/06/22 12:55:31;;;;;;;6.57;5.85;;;;;;;;;;5053369;28;20057;-71
2023/06/22 12:57:56;;;;;;;6.45;5.82;;;;;;;;;;5053621;28;20538;-72
2023/06/22 13:00:22;;;;;;;6.18;5.68;;;;;;;;;;5053472;28;20068;-71
2023/06/22 13:02:47;;;;;;;6.43;5.80;;;;;;;;;;5054052;28;20029;-71
2023/06/22 13:05:12;;;;;;;6.47;5.97;;;;;;;;;;5053445;28;20043;-71
2023/06/22 13:07:38;;;;;;;6.50;5.90;;;;;;;;;;5034457;28;20024;-71
2023/06/22 13:10:03;;;;;;;6.90;6.07;;;;;;;;;;5053018;28;20052;-71
2023/06/22 13:12:29;;;;;;;8.00;5.80;;;;;;;;;;5052928;28;20045;-72
2023/06/22 13:14:54;;;;;;;6.47;5.95;;;;;;;;;;5034697;28;20021;-71
2023/06/22 13:17:20;;;;;;;6.20;5.68;;;;;;;;;;5033824;28;20446;-71
2023/06/22 13:19:46;;;;;;;5.70;5.20;;;;;;;;;;5032973;28;20053;-71
2023/06/22 13:22:28;;;;;;;6.22;5.82;;;;;;;;;;5052939;28;20469;-71
2023/06/22 13:24:54;;;;;;;6.03;5.53;;;;;;;;;;5035016;28;20032;-72
2023/06/22 13:27:19;;;;;;;5.90;5.50;;;;;;;;;;5053591;28;20438;-69
2023/06/22 13:29:45;;;;;;;5.47;5.13;;;;;;;;;;5051890;28;20473;-68
2023/06/22 13:32:10;;;;;;;5.55;5.05;;;;;;;;;;5052694;28;20416;-69
2023/06/22 13:34:35;;;;;;;6.25;5.82;;;;;;;;;;5033914;28;20123;-69
2023/06/22 13:37:01;;;;;;;5.38;4.95;;;;;;;;;;5050848;28;20029;-68
2023/06/22 13:39:27;;;;;;;6.28;5.68;;;;;;;;;;5052087;28;20044;-68
2023/06/22 13:41:52;;;;;;;5.90;5.40;;;;;;;;;;5034251;28;20037;-69
2023/06/22 13:44:17;;;;;;;6.40;5.80;;;;;;;;;;5034185;28;20170;-69
2023/06/22 13:46:43;;;;;;;6.03;5.40;;;;;;;;;;5052686;28;20029;-69
2023/06/22 13:49:13;;;;;;;5.90;5.50;;;;;;;;;;5052863;28;20083;-69
2023/06/22 13:51:38;;;;;;;6.03;5.47;;;;;;;;;;5053161;28;20373;-69
2023/06/22 13:54:04;;;;;;;6.35;5.38;;;;;;;;;;5035011;28;20043;-69
2023/06/22 13:56:29;;;;;;;6.15;5.65;;;;;;;;;;5052340;28;20045;-68
2023/06/22 13:58:56;;;;;;;6.35;5.78;;;;;;;;;;5050542;28;20029;-69
2023/06/22 14:01:21;;;;;;;6.22;5.72;;;;;;;;;;5051386;28;20037;-69
2023/06/22 14:03:48;;;;;;;5.57;5.07;;;;;;;;;;5050887;28;20391;-62
2023/06/22 14:06:13;;;;;;;6.28;5.55;;;;;;;;;;5053426;28;20033;-62
2023/06/22 14:08:38;;;;;;;6.03;5.53;;;;;;;;;;5036157;28;20538;-62
2023/06/22 14:11:04;;;;;;;7.63;5.10;;;;;;;;;;5053249;28;20036;-61
2023/06/22 14:13:29;;;;;;;4.78;4.47;;;;;;;;;;5052939;28;20389;-62
2023/06/22 14:15:54;;;;;;;6.38;5.88;;;;;;;;;;5053005;28;20086;-61
2023/06/22 14:18:22;;;;;;;5.78;5.25;;;;;;;;;;5035515;28;20045;-61
2023/06/22 14:20:48;;;;;;;5.80;5.43;;;;;;;;;;5035934;28;20060;-61
2023/06/22 14:23:13;;;;;;;6.25;5.78;;;;;;;;;;5036863;28;20477;-61
2023/06/22 14:25:39;;;;;;;7.00;6.20;;;;;;;;;;5054909;28;20041;-61
2023/06/22 14:28:04;;;;;;;5.93;5.43;;;;;;;;;;5055084;28;20048;-61
2023/06/22 14:30:29;;;;;;;5.63;5.20;;;;;;;;;;5037337;28;20037;-61